Time;durP1;ratioP1;P1;durP2;ratioP2;P2;SDS_P1;SDS_P2;PMS_P1;PMS_P2;Temp;Humidity;BMP_temperature;BMP_pressure;BME280_temperature;BME280_humidity;BME280_pressure;Samples;Min_cycle;Max_cycle;Signal;HPM_P1;HPM_P2
2022/12/25 00:00:22;;;;;;;13.60;3.33;;;11.40;10.00;;;;;;5024835;28;20194;-71
2022/12/25 00:02:47;;;;;;;5.47;2.90;;;11.50;9.00;;;;;;5030038;28;20184;-71
2022/12/25 00:05:13;;;;;;;5.93;3.00;;;11.50;5.90;;;;;;5031408;28;20363;-72
2022/12/25 00:07:39;;;;;;;11.80;3.37;;;11.60;6.20;;;;;;5031181;28;20182;-71
2022/12/25 00:10:05;;;;;;;14.50;4.03;;;11.60;6.10;;;;;;5029451;28;20235;-71
2022/12/25 00:12:30;;;;;;;6.43;3.03;;;11.60;5.00;;;;;;5031385;28;20277;-71
2022/12/25 00:14:56;;;;;;;8.17;3.13;;;11.60;5.40;;;;;;5028886;28;20460;-72
2022/12/25 00:17:21;;;;;;;7.93;3.43;;;11.60;4.60;;;;;;5031002;28;20251;-71
2022/12/25 00:19:47;;;;;;;6.50;3.27;;;11.60;5.10;;;;;;5030567;28;20600;-72
2022/12/25 00:22:12;;;;;;;8.87;3.53;;;11.60;4.00;;;;;;5035724;28;20181;-70
2022/12/25 00:24:38;;;;;;;11.20;3.33;;;11.60;5.80;;;;;;5033563;28;20209;-69
2022/12/25 00:27:03;;;;;;;9.23;3.80;;;11.60;4.80;;;;;;5030264;28;20895;-71
2022/12/25 00:29:29;;;;;;;5.50;3.00;;;11.60;2.70;;;;;;5030239;28;20188;-71
2022/12/25 00:31:54;;;;;;;7.30;3.30;;;11.60;4.10;;;;;;5022922;28;20193;-71
2022/12/25 00:34:20;;;;;;;6.50;3.53;;;11.60;4.50;;;;;;5031844;28;20182;-71
2022/12/25 00:36:48;;;;;;;9.53;5.27;;;11.60;5.50;;;;;;5031592;28;20180;-72
2022/12/25 00:39:14;;;;;;;7.53;3.63;;;11.60;2.80;;;;;;5030798;28;20174;-71
2022/12/25 00:44:23;;;;;;;9.30;4.00;;;11.60;6.20;;;;;;5024588;28;20193;-71
2022/12/25 00:46:49;;;;;;;9.20;4.80;;;11.60;6.90;;;;;;5027138;28;20413;-71
2022/12/25 00:49:14;;;;;;;8.30;4.97;;;11.60;5.00;;;;;;5023811;28;20182;-71
2022/12/25 00:51:40;;;;;;;8.90;4.20;;;11.60;6.70;;;;;;5030681;28;20182;-71
2022/12/25 00:54:05;;;;;;;11.30;4.10;;;11.60;6.00;;;;;;5021097;28;20190;-71
2022/12/25 00:56:31;;;;;;;8.70;4.70;;;11.60;7.00;;;;;;5030861;28;20641;-71
2022/12/25 00:58:56;;;;;;;10.67;4.67;;;11.60;8.60;;;;;;5020747;28;20177;-69
2022/12/25 01:01:22;;;;;;;14.70;4.50;;;11.60;10.00;;;;;;5016943;28;20297;-71
2022/12/25 01:03:47;;;;;;;8.53;3.80;;;11.60;10.50;;;;;;5030002;28;20651;-72
2022/12/25 01:06:13;;;;;;;8.43;4.30;;;11.60;10.00;;;;;;5029343;28;20193;-72
2022/12/25 01:10:21;;;;;;;10.87;3.70;;;11.60;11.10;;;;;;5025666;28;20621;-72
2022/12/25 01:11:29;;;;;;;8.47;3.60;;;11.60;11.40;;;;;;5025090;28;20289;-71
2022/12/25 01:13:55;;;;;;;8.17;3.80;;;11.50;11.50;;;;;;5028019;28;20445;-71
2022/12/25 01:16:21;;;;;;;11.80;4.30;;;11.40;12.20;;;;;;5028644;28;20463;-71
2022/12/25 01:18:46;;;;;;;8.83;4.17;;;11.40;13.30;;;;;;5042472;28;20182;-71
2022/12/25 01:21:18;;;;;;;11.97;3.90;;;11.40;13.90;;;;;;5027311;28;20198;-72
2022/12/25 01:23:44;;;;;;;8.93;4.60;;;11.40;15.40;;;;;;5035631;28;20624;-72
2022/12/25 01:26:11;;;;;;;9.03;4.70;;;11.40;15.80;;;;;;5031096;28;20513;-72
2022/12/25 01:28:37;;;;;;;10.83;4.57;;;11.40;16.30;;;;;;5026660;28;20674;-71
2022/12/25 01:31:04;;;;;;;8.50;4.00;;;11.40;16.90;;;;;;5031210;28;20475;-69
2022/12/25 01:33:30;;;;;;;8.47;4.00;;;11.40;16.30;;;;;;5025742;28;20911;-72
2022/12/25 01:35:57;;;;;;;11.87;4.70;;;11.40;17.60;;;;;;5035715;28;20496;-72
2022/12/25 01:38:22;;;;;;;13.53;5.50;;;11.40;18.10;;;;;;5020372;28;20437;-73
2022/12/25 01:40:48;;;;;;;23.70;11.87;;;11.30;17.60;;;;;;5027319;28;20459;-72
2022/12/25 01:43:24;;;;;;;23.70;9.27;;;11.30;19.40;;;;;;5028504;28;20256;-72
2022/12/25 01:45:51;;;;;;;16.83;6.60;;;11.30;18.60;;;;;;5028442;28;20640;-72
2022/12/25 01:48:20;;;;;;;14.93;7.00;;;11.20;20.10;;;;;;5028545;28;20444;-71
2022/12/25 01:50:59;;;;;;;21.13;9.80;;;11.20;20.30;;;;;;5039242;28;20540;-72
2022/12/25 01:53:26;;;;;;;42.40;24.00;;;11.20;20.90;;;;;;5036526;28;21215;-71
2022/12/25 01:56:00;;;;;;;15.70;7.80;;;11.20;20.10;;;;;;5029616;28;20456;-72
2022/12/25 01:58:26;;;;;;;13.70;5.67;;;11.20;20.40;;;;;;5028057;28;20595;-72
2022/12/25 02:00:52;;;;;;;13.30;5.23;;;11.20;20.90;;;;;;5039933;28;20791;-71
2022/12/25 02:03:18;;;;;;;11.33;4.63;;;11.20;20.60;;;;;;5028954;28;20227;-72
2022/12/25 02:05:45;;;;;;;20.17;6.63;;;11.20;20.90;;;;;;5019080;28;20262;-73
2022/12/25 02:08:13;;;;;;;11.77;4.80;;;11.20;18.90;;;;;;5028082;28;20551;-72
2022/12/25 02:10:39;;;;;;;13.40;5.07;;;11.20;19.60;;;;;;5028705;28;20527;-71
2022/12/25 02:13:06;;;;;;;14.47;5.50;;;11.10;19.70;;;;;;5027567;28;20528;-72
2022/12/25 02:15:42;;;;;;;10.90;4.70;;;11.10;19.90;;;;;;5029178;28;20210;-71
2022/12/25 02:18:40;;;;;;;12.63;5.30;;;11.10;19.80;;;;;;5022898;28;20779;-71
2022/12/25 02:21:11;;;;;;;19.07;7.20;;;11.00;19.90;;;;;;5019651;28;20548;-72
2022/12/25 02:24:01;;;;;;;16.00;7.23;;;11.10;18.80;;;;;;5051663;28;20452;-70
2022/12/25 02:26:41;;;;;;;17.67;7.60;;;11.10;18.50;;;;;;5027985;28;20609;-72
2022/12/25 02:29:24;;;;;;;23.80;11.57;;;11.10;19.30;;;;;;5026868;28;20440;-72
2022/12/25 02:32:13;;;;;;;12.33;7.40;;;11.10;18.00;;;;;;5022190;28;20736;-72
2022/12/25 02:34:52;;;;;;;18.13;6.60;;;11.10;18.70;;;;;;5028208;28;20472;-73
2022/12/25 02:37:21;;;;;;;12.13;5.40;;;11.10;18.40;;;;;;5026899;28;20433;-72
2022/12/25 02:40:16;;;;;;;12.43;7.10;;;11.10;17.80;;;;;;5020937;28;20436;-72
2022/12/25 03:08:39;;;;;;;9.23;4.33;;;11.10;15.80;;;;;;5023961;28;20443;-72
2022/12/25 03:16:49;;;;;;;34.20;14.33;;;11.10;16.20;;;;;;5023691;28;20451;-72
2022/12/25 03:27:38;;;;;;;19.63;4.60;;;11.10;13.90;;;;;;5025086;28;20420;-71
2022/12/25 03:32:57;;;;;;;6.37;4.30;;;11.10;12.90;;;;;;5025542;28;20528;-73
2022/12/25 03:36:01;;;;;;;13.90;4.50;;;11.10;11.50;;;;;;5028556;28;20588;-72
2022/12/25 04:37:44;;;;;;;4.33;3.20;;;11.10;10.20;;;;;;5025095;28;20514;-71
2022/12/25 04:40:10;;;;;;;5.40;3.60;;;11.00;11.50;;;;;;5020914;28;20464;-72
2022/12/25 04:42:35;;;;;;;7.37;3.80;;;11.00;12.40;;;;;;5027136;28;20848;-71
2022/12/25 04:45:01;;;;;;;7.70;4.20;;;11.00;11.60;;;;;;5020516;28;20178;-72
2022/12/25 04:47:26;;;;;;;8.23;3.60;;;11.10;11.10;;;;;;5025062;28;20772;-71
2022/12/25 04:49:52;;;;;;;4.67;3.80;;;11.10;9.60;;;;;;5030299;28;20201;-71
2022/12/25 04:52:17;;;;;;;5.07;3.60;;;11.10;9.70;;;;;;5018149;28;20174;-70
2022/12/25 04:54:43;;;;;;;4.77;3.50;;;11.10;10.80;;;;;;5027026;28;20228;-70
2022/12/25 04:57:08;;;;;;;5.83;3.67;;;11.10;11.30;;;;;;5023787;28;20193;-70
2022/12/25 04:59:34;;;;;;;5.80;3.93;;;11.00;11.50;;;;;;5024058;28;20210;-72
2022/12/25 05:01:59;;;;;;;5.50;3.90;;;11.00;12.40;;;;;;5024560;28;20189;-71
2022/12/25 05:04:25;;;;;;;7.50;3.80;;;11.00;12.70;;;;;;5030705;28;20173;-72
2022/12/25 05:06:50;;;;;;;7.17;4.40;;;10.90;12.60;;;;;;5044187;28;20183;-73
2022/12/25 05:09:16;;;;;;;9.43;3.80;;;10.80;13.20;;;;;;5029607;28;20224;-71
2022/12/25 05:11:41;;;;;;;4.80;3.37;;;10.80;15.00;;;;;;5028226;28;20177;-71
2022/12/25 05:14:07;;;;;;;6.13;3.40;;;10.70;15.90;;;;;;5030827;28;20249;-72
2022/12/25 05:16:32;;;;;;;8.40;3.50;;;10.70;17.80;;;;;;5029007;28;20202;-71
2022/12/25 05:18:58;;;;;;;7.90;3.87;;;10.60;18.40;;;;;;5028997;28;20178;-72
2022/12/25 05:21:24;;;;;;;10.37;3.90;;;10.70;19.30;;;;;;5030741;28;20504;-72
2022/12/25 05:23:52;;;;;;;7.10;3.97;;;10.70;18.10;;;;;;5039004;28;20186;-71
2022/12/25 05:26:22;;;;;;;4.93;3.47;;;10.80;17.80;;;;;;5030141;28;20181;-72
2022/12/25 05:28:48;;;;;;;6.20;3.60;;;10.80;18.20;;;;;;5030558;28;20413;-72
2022/12/25 05:31:14;;;;;;;5.73;3.67;;;10.70;17.60;;;;;;5023620;28;20876;-73
2022/12/25 05:33:40;;;;;;;6.00;3.77;;;10.80;18.20;;;;;;5030869;28;20654;-73
2022/12/25 05:36:08;;;;;;;6.87;3.80;;;10.80;17.30;;;;;;5030939;28;20467;-72
2022/12/25 05:38:34;;;;;;;7.70;3.60;;;10.80;17.30;;;;;;5028955;28;20336;-72
2022/12/25 05:41:00;;;;;;;5.33;3.13;;;10.90;16.10;;;;;;5031286;28;20444;-70
2022/12/25 05:43:26;;;;;;;5.73;3.57;;;11.00;14.20;;;;;;5029265;28;20409;-72
2022/12/25 05:45:52;;;;;;;6.50;3.90;;;11.10;13.30;;;;;;5023392;28;20577;-72
2022/12/25 05:48:18;;;;;;;5.93;4.03;;;11.10;11.50;;;;;;5029862;28;20586;-72
2022/12/25 05:50:43;;;;;;;7.03;4.10;;;11.20;11.50;;;;;;5031915;28;20190;-72
2022/12/25 05:53:11;;;;;;;5.10;3.03;;;11.40;11.30;;;;;;5034259;28;20552;-72
2022/12/25 05:55:39;;;;;;;6.60;3.30;;;11.20;12.60;;;;;;5030942;28;20201;-72
2022/12/25 05:58:05;;;;;;;8.13;4.80;;;11.20;11.10;;;;;;5021471;28;20578;-73
2022/12/25 06:00:31;;;;;;;6.30;4.30;;;11.20;11.70;;;;;;5024418;28;20449;-72
2022/12/25 06:02:57;;;;;;;5.40;3.83;;;11.20;11.60;;;;;;5028028;28;20423;-72
2022/12/25 06:05:22;;;;;;;6.10;4.17;;;11.20;11.60;;;;;;5029400;28;20177;-72
2022/12/25 06:07:48;;;;;;;4.57;3.20;;;11.20;10.90;;;;;;5029016;28;20316;-72
2022/12/25 06:10:13;;;;;;;5.90;3.43;;;11.20;12.50;;;;;;5029101;28;20213;-72
2022/12/25 06:12:39;;;;;;;4.07;3.10;;;11.20;10.80;;;;;;5028846;28;20173;-71
2022/12/25 06:15:05;;;;;;;4.83;2.90;;;11.20;10.60;;;;;;5025268;28;20193;-72
2022/12/25 06:17:31;;;;;;;5.57;3.40;;;11.30;10.60;;;;;;5030434;28;20172;-72
2022/12/25 06:19:56;;;;;;;6.10;3.10;;;11.30;9.20;;;;;;5028866;28;20448;-70
2022/12/25 06:22:22;;;;;;;4.73;3.10;;;11.40;10.90;;;;;;5035546;28;20178;-71
2022/12/25 06:24:47;;;;;;;5.37;3.50;;;11.40;8.30;;;;;;5043338;28;20181;-72
2022/12/25 06:27:14;;;;;;;5.80;3.23;;;11.40;6.60;;;;;;5044723;28;20174;-71
2022/12/25 06:29:39;;;;;;;6.63;3.10;;;11.40;6.90;;;;;;5052136;28;20576;-71
2022/12/25 06:32:05;;;;;;;5.33;3.30;;;11.40;8.20;;;;;;5022481;28;20441;-72
2022/12/25 06:34:30;;;;;;;6.50;3.17;;;11.50;8.20;;;;;;5028431;28;20189;-72
2022/12/25 06:36:56;;;;;;;6.67;3.50;;;11.40;7.10;;;;;;5020875;28;20181;-72
2022/12/25 06:39:24;;;;;;;6.50;3.50;;;11.40;5.20;;;;;;5027330;28;20232;-72
2022/12/25 06:41:49;;;;;;;4.03;2.93;;;11.40;6.50;;;;;;5026189;28;20174;-70
2022/12/25 06:44:15;;;;;;;5.67;3.50;;;11.40;8.70;;;;;;5024970;28;20459;-72
2022/12/25 06:46:40;;;;;;;5.90;3.90;;;11.40;9.20;;;;;;5028201;28;20174;-72
2022/12/25 06:49:06;;;;;;;4.10;3.43;;;11.40;8.90;;;;;;5027559;28;20178;-72
2022/12/25 06:51:32;;;;;;;6.80;3.77;;;11.40;8.70;;;;;;5028320;28;20194;-72
2022/12/25 06:54:01;;;;;;;5.17;3.10;;;11.40;8.90;;;;;;5032852;28;20199;-72
2022/12/25 06:56:28;;;;;;;8.67;3.43;;;11.40;9.00;;;;;;5027169;28;20839;-73
2022/12/25 06:58:56;;;;;;;4.83;2.90;;;11.40;9.90;;;;;;5027624;28;20653;-72
2022/12/25 07:01:29;;;;;;;4.10;2.90;;;11.40;9.10;;;;;;5021626;28;20464;-72
2022/12/25 07:03:57;;;;;;;4.67;3.10;;;11.40;9.60;;;;;;5028239;28;20444;-72
2022/12/25 07:06:22;;;;;;;6.00;3.20;;;11.50;9.00;;;;;;5029160;28;20417;-72
2022/12/25 07:08:48;;;;;;;4.40;3.20;;;11.50;8.00;;;;;;5026571;28;20455;-72
2022/12/25 07:11:14;;;;;;;8.00;3.20;;;11.50;8.30;;;;;;5028498;28;20281;-73
2022/12/25 07:13:40;;;;;;;5.70;3.27;;;11.40;9.10;;;;;;5024808;28;20291;-72
2022/12/25 07:16:06;;;;;;;4.60;3.60;;;11.40;8.20;;;;;;5029386;28;20993;-72
2022/12/25 07:18:33;;;;;;;7.67;3.20;;;11.40;8.20;;;;;;5026692;28;20178;-71
2022/12/25 07:21:04;;;;;;;6.20;3.27;;;11.40;8.10;;;;;;5031786;28;20501;-71
2022/12/25 07:23:29;;;;;;;6.50;3.37;;;11.50;8.40;;;;;;5034756;28;20437;-72
2022/12/25 07:25:57;;;;;;;5.10;3.13;;;11.50;7.80;;;;;;5026871;28;20524;-73
2022/12/25 07:28:22;;;;;;;4.17;3.33;;;11.40;8.00;;;;;;5028096;28;20219;-72
2022/12/25 07:30:48;;;;;;;4.03;3.63;;;11.40;8.20;;;;;;5026109;28;20568;-71
2022/12/25 15:44:30;;;;;;;4.07;3.67;;;11.80;37.60;;;;;;5093280;28;20412;-71
2022/12/25 15:46:56;;;;;;;5.30;4.00;;;11.90;36.30;;;;;;5086181;28;20452;-69
2022/12/25 15:49:22;;;;;;;4.33;3.90;;;12.00;34.40;;;;;;5094854;28;20171;-70
2022/12/25 15:51:47;;;;;;;4.60;4.10;;;12.00;33.20;;;;;;5084132;28;20417;-71
2022/12/25 15:54:13;;;;;;;6.67;3.80;;;12.10;30.30;;;;;;5085188;28;20190;-70
2022/12/25 15:56:50;;;;;;;5.07;3.60;;;12.20;27.20;;;;;;5101446;28;20176;-71
2022/12/25 15:59:18;;;;;;;6.73;3.13;;;12.10;24.30;;;;;;5083561;28;20187;-69
2022/12/25 16:01:50;;;;;;;3.20;2.90;;;12.20;23.60;;;;;;5092641;28;21177;-70
2022/12/25 16:04:16;;;;;;;4.10;3.17;;;12.30;20.90;;;;;;5069627;28;20788;-71
2022/12/25 16:06:42;;;;;;;4.50;3.33;;;12.40;19.70;;;;;;5086191;28;20416;-71
2022/12/25 16:09:10;;;;;;;5.17;3.20;;;12.40;17.70;;;;;;5084457;28;20631;-71
2022/12/25 16:11:36;;;;;;;5.73;3.33;;;12.50;17.10;;;;;;5084432;28;20206;-70
2022/12/25 16:14:02;;;;;;;5.50;3.90;;;12.50;14.60;;;;;;5084981;28;20410;-71
2022/12/25 16:16:27;;;;;;;4.60;4.07;;;12.50;14.20;;;;;;5085908;28;20516;-71
2022/12/25 16:18:53;;;;;;;13.87;9.87;;;12.50;14.80;;;;;;5085595;28;20237;-71
2022/12/25 16:21:20;;;;;;;5.70;3.93;;;12.40;14.30;;;;;;5090663;28;20225;-70
2022/12/25 16:23:45;;;;;;;5.30;3.90;;;12.40;14.20;;;;;;5097476;28;20198;-71
2022/12/25 16:26:11;;;;;;;4.40;3.67;;;12.40;13.40;;;;;;5105643;28;20444;-70
2022/12/25 16:28:36;;;;;;;5.10;3.60;;;12.30;15.10;;;;;;5084428;28;20172;-70
2022/12/25 16:31:02;;;;;;;5.78;3.90;;;12.30;14.80;;;;;;5082906;28;20444;-68
2022/12/25 16:33:28;;;;;;;8.63;3.60;;;12.30;15.20;;;;;;5082612;28;20183;-69
2022/12/25 16:35:54;;;;;;;5.13;4.03;;;12.30;14.10;;;;;;5083496;28;20195;-70
2022/12/25 16:38:19;;;;;;;7.87;4.33;;;12.30;14.00;;;;;;5081152;28;20207;-70
2022/12/25 16:40:54;;;;;;;10.00;4.80;;;12.30;14.90;;;;;;5081544;28;20473;-70
2022/12/25 16:43:20;;;;;;;5.87;4.60;;;12.30;14.70;;;;;;5099278;28;20524;-69
2022/12/25 16:45:45;;;;;;;11.97;5.30;;;12.20;15.00;;;;;;5083638;28;20434;-70
2022/12/25 16:48:12;;;;;;;6.10;5.07;;;12.20;16.70;;;;;;5079755;28;20176;-69
2022/12/25 16:50:39;;;;;;;7.60;5.43;;;12.20;17.40;;;;;;5074662;28;20271;-71
2022/12/25 16:53:05;;;;;;;7.30;5.27;;;12.20;17.70;;;;;;5075876;28;20485;-69
2022/12/25 16:55:32;;;;;;;6.13;4.70;;;12.30;16.40;;;;;;5070359;28;20461;-70
2022/12/25 16:57:57;;;;;;;6.10;4.87;;;12.40;14.00;;;;;;5070426;28;20862;-69
2022/12/25 17:00:23;;;;;;;8.53;5.67;;;12.40;13.20;;;;;;5066032;28;20471;-69
2022/12/25 17:02:49;;;;;;;10.37;7.77;;;12.50;12.50;;;;;;5068499;28;20180;-70
2022/12/25 17:05:14;;;;;;;15.73;10.23;;;12.60;10.90;;;;;;5069938;28;20172;-71
2022/12/25 17:07:40;;;;;;;14.57;10.40;;;12.60;9.20;;;;;;5068031;28;20191;-69
2022/12/25 17:10:06;;;;;;;24.57;13.07;;;12.70;9.10;;;;;;5068854;28;20199;-71
2022/12/25 17:12:33;;;;;;;21.90;14.50;;;12.70;7.80;;;;;;5070163;28;20181;-71
2022/12/25 17:14:58;;;;;;;17.00;11.33;;;12.70;8.10;;;;;;5069787;28;20415;-70
2022/12/25 17:17:24;;;;;;;23.27;13.27;;;12.80;6.90;;;;;;5071733;28;20425;-70
2022/12/25 17:19:50;;;;;;;51.43;27.47;;;12.70;5.70;;;;;;5071588;28;20192;-70
2022/12/25 17:22:15;;;;;;;56.97;33.03;;;12.70;6.30;;;;;;5077222;28;20441;-69
2022/12/25 17:24:41;;;;;;;62.97;33.50;;;12.70;7.30;;;;;;5089092;28;20194;-70
2022/12/25 17:27:08;;;;;;;49.73;29.43;;;12.60;5.80;;;;;;5080026;28;20578;-70
2022/12/25 17:29:35;;;;;;;56.20;27.47;;;12.50;4.70;;;;;;5070302;28;20738;-70
2022/12/25 17:32:00;;;;;;;44.70;22.80;;;12.50;6.80;;;;;;5070995;28;20524;-70
2022/12/25 17:34:26;;;;;;;39.90;21.80;;;12.40;7.50;;;;;;5071193;28;20498;-71
2022/12/25 17:36:53;;;;;;;40.43;20.70;;;12.40;8.20;;;;;;5071645;28;20248;-70
2022/12/25 17:39:18;;;;;;;40.73;20.93;;;13.50;8.70;;;;;;5062018;28;20172;-70
2022/12/25 17:41:44;;;;;;;32.30;19.23;;;12.30;9.70;;;;;;5085107;28;20462;-70
2022/12/25 17:44:09;;;;;;;37.40;21.17;;;12.30;10.10;;;;;;5070415;28;20165;-70
2022/12/25 17:46:35;;;;;;;46.23;22.77;;;12.30;9.40;;;;;;5086836;28;20217;-71
2022/12/25 17:49:00;;;;;;;34.30;23.17;;;12.30;10.00;;;;;;5070955;28;20271;-70
2022/12/25 17:51:28;;;;;;;32.73;18.23;;;12.20;9.60;;;;;;5073938;28;20605;-70
2022/12/25 17:53:57;;;;;;;36.53;21.60;;;12.20;9.20;;;;;;5077429;28;20633;-70
2022/12/25 17:56:23;;;;;;;40.60;25.90;;;12.30;8.70;;;;;;5070409;28;20425;-70
2022/12/25 17:58:57;;;;;;;43.47;28.83;;;12.20;8.30;;;;;;5070207;28;20418;-71
2022/12/25 18:01:24;;;;;;;45.60;30.50;;;12.20;9.00;;;;;;5069882;28;20465;-70
2022/12/25 18:03:50;;;;;;;49.27;34.13;;;12.20;8.70;;;;;;5069836;28;20419;-71
2022/12/25 18:06:19;;;;;;;49.40;32.27;;;12.10;9.90;;;;;;5070955;28;20433;-70
2022/12/25 18:08:45;;;;;;;42.73;28.40;;;12.10;10.40;;;;;;5068783;28;20168;-70
2022/12/25 18:11:23;;;;;;;41.20;29.13;;;12.10;10.20;;;;;;5069757;28;20437;-70
2022/12/25 18:13:50;;;;;;;43.90;29.87;;;12.10;9.90;;;;;;5069781;28;20564;-71
2022/12/25 18:16:17;;;;;;;39.30;28.20;;;12.10;10.30;;;;;;5070584;28;20423;-71
2022/12/25 18:18:43;;;;;;;41.43;25.67;;;12.10;10.50;;;;;;5070821;28;20828;-70
2022/12/25 18:21:11;;;;;;;37.17;23.83;;;12.10;10.90;;;;;;5074454;28;20511;-71
2022/12/25 18:23:37;;;;;;;36.37;25.40;;;12.10;10.20;;;;;;5080102;28;20410;-70
2022/12/25 18:26:06;;;;;;;38.07;26.93;;;12.10;10.20;;;;;;5090823;28;20402;-70
2022/12/25 18:28:31;;;;;;;44.67;31.40;;;12.00;11.10;;;;;;5087897;28;20409;-71
2022/12/25 18:30:57;;;;;;;49.20;34.33;;;12.00;12.00;;;;;;5076364;28;20464;-70
2022/12/25 18:33:23;;;;;;;49.83;36.33;;;12.00;12.20;;;;;;5069522;28;20313;-70
2022/12/25 18:35:49;;;;;;;53.60;36.30;;;11.90;12.30;;;;;;5069856;28;20505;-70
2022/12/25 18:38:15;;;;;;;40.00;28.63;;;11.90;13.20;;;;;;5063797;28;20248;-71
2022/12/25 18:40:47;;;;;;;30.20;20.50;;;11.90;14.20;;;;;;5067041;28;20293;-70
2022/12/25 18:43:13;;;;;;;34.70;25.43;;;11.80;14.50;;;;;;5068266;28;20494;-71
2022/12/25 18:45:39;;;;;;;37.10;26.13;;;11.80;14.80;;;;;;5085339;28;20411;-71
2022/12/25 18:48:05;;;;;;;36.80;26.80;;;11.80;15.10;;;;;;5069994;28;20893;-70
2022/12/25 18:50:34;;;;;;;32.50;23.13;;;13.10;16.90;;;;;;5069827;28;20208;-71
2022/12/25 18:53:00;;;;;;;36.10;24.83;;;11.60;16.40;;;;;;5062579;28;20298;-71
2022/12/25 18:55:26;;;;;;;32.47;23.03;;;11.40;18.50;;;;;;5072537;28;20836;-70
2022/12/25 18:57:51;;;;;;;44.73;25.90;;;11.40;20.30;;;;;;5069117;28;20484;-71
2022/12/25 19:00:17;;;;;;;37.80;27.17;;;11.30;21.20;;;;;;5069122;28;20189;-70
2022/12/25 19:02:43;;;;;;;31.43;22.30;;;11.20;22.80;;;;;;5068957;28;20559;-71
2022/12/25 19:05:08;;;;;;;18.60;13.50;;;11.20;25.10;;;;;;5069767;28;20173;-71
2022/12/25 19:07:35;;;;;;;25.40;17.40;;;11.20;27.70;;;;;;5069346;28;20190;-71
2022/12/25 19:10:00;;;;;;;23.43;18.30;;;11.20;27.00;;;;;;5068260;28;20250;-70
2022/12/25 19:12:26;;;;;;;16.77;13.30;;;11.20;26.40;;;;;;5068567;28;20419;-71
2022/12/25 19:14:52;;;;;;;13.57;10.40;;;11.30;26.40;;;;;;5068542;28;20652;-71
2022/12/25 19:17:17;;;;;;;14.33;9.93;;;11.30;27.80;;;;;;5069601;28;20206;-70
2022/12/25 19:19:43;;;;;;;12.00;8.53;;;11.30;25.20;;;;;;5069359;28;20197;-71
2022/12/25 19:22:08;;;;;;;12.13;8.30;;;11.30;24.50;;;;;;5076854;28;20233;-70
2022/12/25 19:24:35;;;;;;;9.20;7.40;;;11.30;23.50;;;;;;5072530;28;20179;-70
2022/12/25 19:27:01;;;;;;;9.80;6.80;;;11.30;23.70;;;;;;5069064;28;20594;-71
2022/12/25 19:29:27;;;;;;;9.17;6.60;;;11.50;19.10;;;;;;5068467;28;20407;-71
2022/12/25 19:31:52;;;;;;;9.00;7.37;;;11.50;20.80;;;;;;5068660;28;20202;-70
2022/12/25 19:34:18;;;;;;;8.87;6.80;;;11.60;19.50;;;;;;5069197;28;20173;-70
2022/12/25 19:36:43;;;;;;;9.40;7.00;;;11.70;16.40;;;;;;5069388;28;20168;-71
2022/12/25 19:39:10;;;;;;;10.40;6.60;;;11.70;15.20;;;;;;5067000;28;20169;-70
2022/12/25 19:41:36;;;;;;;7.80;6.40;;;11.70;14.70;;;;;;5067694;28;20200;-70
2022/12/25 19:44:02;;;;;;;8.73;6.30;;;11.80;13.90;;;;;;5068151;28;20419;-71
2022/12/25 19:46:31;;;;;;;8.90;6.83;;;11.80;13.20;;;;;;5069080;28;20271;-70
2022/12/25 19:49:03;;;;;;;8.50;6.50;;;11.90;12.00;;;;;;5069217;28;20427;-71
2022/12/25 19:51:34;;;;;;;9.20;6.23;;;11.90;11.80;;;;;;5075974;28;21143;-71
2022/12/25 19:54:00;;;;;;;8.53;6.60;;;11.90;11.60;;;;;;5062605;28;20509;-71
2022/12/25 19:56:27;;;;;;;8.23;6.53;;;11.90;11.80;;;;;;5067336;28;20518;-71
2022/12/25 19:58:53;;;;;;;10.23;7.37;;;11.90;12.00;;;;;;5068176;28;20824;-70
2022/12/25 20:01:20;;;;;;;9.20;6.60;;;11.90;12.00;;;;;;5067892;28;20558;-70
2022/12/25 20:03:46;;;;;;;14.27;6.50;;;11.90;12.10;;;;;;5069074;28;20173;-70
2022/12/25 20:06:20;;;;;;;9.37;6.20;;;11.90;14.10;;;;;;5069329;28;20866;-70
2022/12/25 20:08:48;;;;;;;7.00;5.63;;;11.90;12.10;;;;;;5068969;28;20406;-71
2022/12/25 20:11:14;;;;;;;9.40;6.60;;;11.90;12.90;;;;;;5068238;28;20434;-71
2022/12/25 20:13:40;;;;;;;7.17;6.03;;;11.80;13.20;;;;;;5046211;28;20435;-70
2022/12/25 20:16:07;;;;;;;8.10;5.97;;;11.80;13.50;;;;;;5049218;28;20794;-70
2022/12/25 20:18:33;;;;;;;9.40;7.00;;;11.80;13.50;;;;;;5047550;28;20578;-70
2022/12/25 20:21:00;;;;;;;7.07;6.37;;;11.80;13.40;;;;;;5059738;28;20460;-68
2022/12/25 20:23:26;;;;;;;10.60;6.20;;;11.80;13.20;;;;;;5078495;28;20274;-71
2022/12/25 20:25:52;;;;;;;9.47;6.77;;;11.80;13.30;;;;;;5069012;28;20775;-71
2022/12/25 20:28:17;;;;;;;8.17;6.10;;;11.90;12.40;;;;;;5070668;28;20168;-70
2022/12/25 20:30:43;;;;;;;8.30;6.33;;;11.90;13.30;;;;;;5072755;28;20611;-70
2022/12/25 20:33:09;;;;;;;8.00;6.07;;;11.90;13.20;;;;;;5071715;28;20734;-70
2022/12/25 20:35:35;;;;;;;12.27;6.43;;;11.80;13.40;;;;;;5072826;28;20631;-70
2022/12/25 20:38:01;;;;;;;9.90;7.33;;;11.80;12.50;;;;;;5068289;28;20173;-71
2022/12/25 20:40:26;;;;;;;12.20;9.50;;;11.80;12.90;;;;;;5067470;28;20470;-71
2022/12/25 20:42:52;;;;;;;13.97;9.87;;;11.70;13.30;;;;;;5070771;28;20708;-72
2022/12/25 20:45:17;;;;;;;14.77;11.20;;;11.60;13.80;;;;;;5070632;28;20653;-70
2022/12/25 20:47:43;;;;;;;14.93;11.93;;;11.60;14.90;;;;;;5071588;28;20172;-71
2022/12/25 20:50:09;;;;;;;18.63;12.13;;;11.60;14.70;;;;;;5072202;28;20283;-70
2022/12/25 20:52:34;;;;;;;20.60;13.10;;;11.60;14.40;;;;;;5079529;28;20231;-70
2022/12/25 20:55:00;;;;;;;18.93;12.87;;;11.60;14.10;;;;;;5072230;28;20225;-71
2022/12/25 20:57:26;;;;;;;14.47;11.23;;;11.60;14.10;;;;;;5070021;28;20179;-70
2022/12/25 20:59:53;;;;;;;16.53;11.33;;;11.60;12.90;;;;;;5069308;28;20228;-70
2022/12/25 21:02:18;;;;;;;17.37;11.70;;;11.60;13.50;;;;;;5071506;28;20957;-71
2022/12/25 21:04:44;;;;;;;14.43;10.90;;;11.60;13.20;;;;;;5072154;28;20597;-69
2022/12/25 21:07:09;;;;;;;15.70;11.23;;;11.60;12.70;;;;;;5071891;28;20160;-70
2022/12/25 21:09:35;;;;;;;16.47;11.63;;;11.50;12.00;;;;;;5063047;28;20738;-71
2022/12/25 21:12:00;;;;;;;16.70;12.17;;;11.50;13.80;;;;;;5070535;28;20701;-71
2022/12/25 21:14:28;;;;;;;15.70;11.50;;;11.40;14.20;;;;;;5071143;28;20835;-70
2022/12/25 21:16:54;;;;;;;16.80;11.77;;;11.40;15.20;;;;;;5071946;28;20535;-70
2022/12/25 21:19:19;;;;;;;15.57;11.60;;;11.30;13.50;;;;;;5071483;28;20427;-70
2022/12/25 21:21:47;;;;;;;16.17;12.00;;;11.30;15.10;;;;;;5074348;28;20201;-70
2022/12/25 21:24:13;;;;;;;18.30;12.77;;;11.30;14.80;;;;;;5077546;28;20164;-71
2022/12/25 21:26:38;;;;;;;20.50;13.50;;;11.30;16.90;;;;;;5070670;28;21122;-71
2022/12/25 21:29:04;;;;;;;20.70;13.20;;;11.30;16.80;;;;;;5069172;28;20180;-71
2022/12/25 21:33:50;;;;;;;23.73;14.20;;;11.30;17.20;;;;;;5070924;28;20189;-70
2022/12/25 21:34:15;;;;;;;20.17;13.03;;;11.30;17.10;;;;;;5071268;28;20828;-71
2022/12/25 21:36:41;;;;;;;18.57;12.80;;;11.30;17.10;;;;;;5071702;28;20425;-70
2022/12/25 21:39:08;;;;;;;14.37;9.83;;;11.30;17.10;;;;;;5061383;28;20208;-71
2022/12/25 21:41:36;;;;;;;14.10;9.83;;;11.30;16.50;;;;;;5069792;28;20291;-70
2022/12/25 21:44:02;;;;;;;9.90;7.70;;;11.40;16.70;;;;;;5070133;28;20677;-70
2022/12/25 21:46:28;;;;;;;14.90;8.77;;;11.50;16.00;;;;;;5071471;28;20518;-70
2022/12/25 21:48:55;;;;;;;11.80;8.00;;;11.30;15.60;;;;;;5071174;28;20494;-71
2022/12/25 21:54:09;;;;;;;15.47;9.73;;;11.40;14.90;;;;;;5074801;28;20523;-70
2022/12/25 21:56:37;;;;;;;12.50;8.90;;;11.40;13.50;;;;;;5070781;28;20414;-70
2022/12/25 21:59:05;;;;;;;9.83;6.90;;;11.40;12.50;;;;;;5070113;28;20514;-70
2022/12/25 22:01:31;;;;;;;11.67;7.50;;;11.50;12.20;;;;;;5069963;28;20508;-70
2022/12/25 22:04:01;;;;;;;11.27;8.17;;;11.50;11.00;;;;;;5070916;28;20819;-71
2022/12/25 22:09:10;;;;;;;9.20;6.70;;;11.70;4.70;;;;;;5070727;28;20446;-70
2022/12/25 22:19:50;;;;;;;9.07;6.60;;;12.10;1.00;;;;;;5070847;28;20915;-70
2022/12/25 22:22:22;;;;;;;8.13;5.70;;;12.10;1.00;;;;;;5078878;28;20425;-70
2022/12/25 22:24:48;;;;;;;10.27;6.00;;;12.20;1.00;;;;;;5072181;28;20208;-71
2022/12/25 22:27:15;;;;;;;8.33;6.00;;;12.20;1.00;;;;;;5069789;28;20534;-71
2022/12/25 22:29:41;;;;;;;8.07;6.00;;;12.20;1.00;;;;;;5069756;28;20438;-71
2022/12/25 22:32:06;;;;;;;9.70;6.83;;;12.20;1.00;;;;;;5069551;28;20419;-70
2022/12/25 22:34:32;;;;;;;13.33;6.87;;;12.20;1.00;;;;;;5068838;28;20222;-70
2022/12/25 22:36:58;;;;;;;8.63;5.57;;;12.20;1.00;;;;;;5069113;28;20661;-71
2022/12/25 22:39:24;;;;;;;8.73;6.53;;;12.30;1.00;;;;;;5067457;28;20666;-70
2022/12/25 22:41:53;;;;;;;7.87;6.13;;;12.30;1.00;;;;;;5068485;28;20601;-70
2022/12/25 22:44:19;;;;;;;14.07;7.37;;;12.30;1.00;;;;;;5069191;28;20427;-70
2022/12/25 22:46:45;;;;;;;9.20;6.43;;;12.30;1.00;;;;;;5070216;28;20437;-71
2022/12/25 22:49:10;;;;;;;15.10;8.50;;;12.40;1.00;;;;;;5069567;28;20164;-71
2022/12/25 22:51:36;;;;;;;11.20;7.53;;;12.40;1.00;;;;;;5077397;28;20661;-69